Time;durP1;ratioP1;P1;durP2;ratioP2;P2;SDS_P1;SDS_P2;PMS_P1;PMS_P2;Temp;Humidity;BMP_temperature;BMP_pressure;BME280_temperature;BME280_humidity;BME280_pressure;Samples;Min_cycle;Max_cycle;Signal;HPM_P1;HPM_P2
2021/06/02 00:02:19;;;;;;;25.03;16.67;;;9.20;96.30;;;;;;5020415;28;20782;-85
2021/06/02 00:04:49;;;;;;;30.33;17.00;;;9.20;96.50;;;;;;5024533;28;20276;-83
2021/06/02 00:07:21;;;;;;;21.97;15.07;;;9.10;97.40;;;;;;5030207;28;20220;-83
2021/06/02 00:09:50;;;;;;;25.90;15.13;;;9.20;97.90;;;;;;5029771;28;20265;-83
2021/06/02 00:12:20;;;;;;;20.43;15.00;;;9.20;97.30;;;;;;5021782;28;20552;-83
2021/06/02 00:14:49;;;;;;;20.00;15.27;;;9.10;97.40;;;;;;5024858;28;20641;-82
2021/06/02 00:17:18;;;;;;;20.70;14.00;;;9.10;97.60;;;;;;5024106;28;20907;-82
2021/06/02 00:19:47;;;;;;;22.60;15.33;;;9.00;98.00;;;;;;5027902;28;20213;-81
2021/06/02 00:22:17;;;;;;;26.53;15.43;;;9.10;97.60;;;;;;5022317;28;20564;-83
2021/06/02 00:24:46;;;;;;;18.03;13.67;;;9.00;97.50;;;;;;5027094;28;20454;-83
2021/06/02 00:27:14;;;;;;;23.13;15.13;;;9.00;97.90;;;;;;5025070;28;20223;-85
2021/06/02 00:29:44;;;;;;;18.27;14.30;;;9.00;98.00;;;;;;5029092;28;20206;-83
2021/06/02 00:32:15;;;;;;;20.23;14.00;;;8.90;98.20;;;;;;5023839;28;20223;-82
2021/06/02 00:34:46;;;;;;;22.20;14.80;;;8.90;98.30;;;;;;5024809;28;20608;-83
2021/06/02 00:37:15;;;;;;;21.03;15.10;;;9.00;98.40;;;;;;5025263;28;20312;-84
2021/06/02 00:39:47;;;;;;;22.43;15.30;;;8.90;98.10;;;;;;5024308;28;20225;-83
2021/06/02 00:42:15;;;;;;;21.43;14.67;;;8.70;98.00;;;;;;5024886;28;20202;-84
2021/06/02 00:44:43;;;;;;;20.73;15.47;;;8.80;98.20;;;;;;5025774;28;20212;-83
2021/06/02 00:47:12;;;;;;;19.20;14.70;;;8.70;98.60;;;;;;5028995;28;20204;-83
2021/06/02 00:49:42;;;;;;;17.67;13.27;;;8.80;98.70;;;;;;5028601;28;20251;-83
2021/06/02 00:52:11;;;;;;;19.13;14.60;;;8.70;98.40;;;;;;5027059;28;20926;-82
2021/06/02 00:54:39;;;;;;;21.50;14.07;;;8.70;98.60;;;;;;5025677;28;20205;-83
2021/06/02 00:57:14;;;;;;;20.87;15.27;;;8.60;98.60;;;;;;5028538;28;20666;-82
2021/06/02 00:59:45;;;;;;;19.20;13.67;;;8.50;98.80;;;;;;5026634;28;20210;-81
2021/06/02 01:02:18;;;;;;;18.47;14.23;;;8.50;99.20;;;;;;5026145;28;20288;-83
2021/06/02 01:04:49;;;;;;;18.07;13.60;;;8.50;99.60;;;;;;5025414;28;20770;-83
2021/06/02 01:07:22;;;;;;;19.97;14.13;;;8.60;99.90;;;;;;5028639;28;20212;-83
2021/06/02 01:09:52;;;;;;;19.83;14.27;;;8.50;99.90;;;;;;5028309;28;20208;-83
2021/06/02 01:12:22;;;;;;;19.03;13.73;;;8.50;99.80;;;;;;5025706;28;20637;-83
2021/06/02 01:14:51;;;;;;;18.73;14.03;;;8.50;99.90;;;;;;5029948;28;20217;-82
2021/06/02 01:17:22;;;;;;;17.20;13.47;;;8.40;99.90;;;;;;5025977;28;20215;-85
2021/06/02 01:19:54;;;;;;;17.00;13.83;;;8.40;99.90;;;;;;5030509;28;20678;-83
2021/06/02 01:22:24;;;;;;;17.00;13.73;;;8.40;99.90;;;;;;5025680;28;20264;-83
2021/06/02 01:24:52;;;;;;;18.63;13.23;;;8.40;99.90;;;;;;5029696;28;20206;-83
2021/06/02 01:27:21;;;;;;;18.17;13.93;;;8.50;99.90;;;;;;5032585;28;20213;-84
2021/06/02 01:29:50;;;;;;;14.83;12.87;;;8.60;99.90;;;;;;5042117;28;20192;-82
2021/06/02 01:32:33;;;;;;;21.63;13.73;;;8.60;99.90;;;;;;5036640;28;20592;-85
2021/06/02 01:35:25;;;;;;;14.87;13.00;;;8.70;99.90;;;;;;5024794;28;20553;-82
2021/06/02 01:38:20;;;;;;;15.40;11.60;;;8.80;99.90;;;;;;5030076;28;20205;-82
2021/06/02 01:41:13;;;;;;;14.60;11.80;;;8.90;99.00;;;;;;5038650;28;20205;-83
2021/06/02 01:44:40;;;;;;;15.13;12.37;;;9.00;98.70;;;;;;5027020;28;20213;-83
2021/06/02 01:47:45;;;;;;;15.83;12.37;;;9.10;98.80;;;;;;5029527;28;20291;-83
2021/06/02 01:50:21;;;;;;;18.53;12.57;;;9.10;97.70;;;;;;5030551;28;20205;-82
2021/06/02 01:53:34;;;;;;;15.47;11.93;;;9.20;97.50;;;;;;5025096;28;20367;-82
2021/06/02 01:56:48;;;;;;;14.53;11.43;;;9.10;97.60;;;;;;5023566;28;20244;-82
2021/06/02 01:59:42;;;;;;;15.43;12.20;;;9.10;97.40;;;;;;5035809;28;20219;-83
2021/06/02 02:02:37;;;;;;;14.70;12.10;;;9.20;97.10;;;;;;5024301;28;20230;-83
2021/06/02 02:05:17;;;;;;;15.07;12.10;;;9.20;97.00;;;;;;5001140;28;20216;-83
2021/06/02 02:08:27;;;;;;;14.23;11.97;;;9.20;96.80;;;;;;5031542;28;20205;-82
2021/06/02 02:11:06;;;;;;;14.73;11.20;;;9.10;96.90;;;;;;4959716;28;20309;-82
2021/06/02 02:13:56;;;;;;;14.73;12.03;;;9.10;96.90;;;;;;5013766;28;20211;-83
2021/06/02 02:16:34;;;;;;;14.23;11.83;;;9.00;96.80;;;;;;5025737;28;20256;-83
2021/06/02 02:19:19;;;;;;;13.33;11.07;;;8.90;96.80;;;;;;5029674;28;20225;-84
2021/06/02 02:21:55;;;;;;;13.83;11.80;;;8.80;97.00;;;;;;5023469;28;20364;-86
2021/06/02 02:24:40;;;;;;;13.87;11.37;;;8.80;98.10;;;;;;5023489;28;20200;-83
2021/06/02 02:27:25;;;;;;;16.63;11.27;;;8.70;98.10;;;;;;5027686;28;20196;-83
2021/06/02 02:30:02;;;;;;;15.87;11.50;;;8.80;99.30;;;;;;5026290;28;20567;-82
2021/06/02 02:33:00;;;;;;;15.43;12.07;;;8.70;99.10;;;;;;5021720;28;20205;-81
2021/06/02 02:35:41;;;;;;;14.53;11.13;;;8.60;99.10;;;;;;5021739;28;20218;-83
2021/06/02 02:38:25;;;;;;;15.37;11.33;;;8.70;99.10;;;;;;5028209;28;20401;-83
2021/06/02 02:41:02;;;;;;;14.33;11.87;;;8.80;99.70;;;;;;5026683;28;20296;-82
2021/06/02 02:43:43;;;;;;;14.83;11.37;;;8.80;99.80;;;;;;5022066;28;20268;-82
2021/06/02 02:46:25;;;;;;;15.40;11.63;;;8.80;99.90;;;;;;5025995;28;20214;-83
2021/06/02 02:49:02;;;;;;;14.40;11.93;;;9.10;99.90;;;;;;5026276;28;20616;-83
2021/06/02 02:51:41;;;;;;;15.07;11.10;;;9.30;99.20;;;;;;5025086;28;20205;-84
2021/06/02 02:54:13;;;;;;;15.93;11.17;;;9.50;98.00;;;;;;5025857;28;20557;-84
2021/06/02 02:56:49;;;;;;;15.00;11.87;;;9.60;97.40;;;;;;5030305;28;20234;-82
2021/06/02 02:59:23;;;;;;;13.77;11.50;;;9.60;97.30;;;;;;5026135;28;20208;-83
2021/06/02 03:02:01;;;;;;;13.70;11.00;;;9.60;97.10;;;;;;5023835;28;20413;-83
2021/06/02 03:04:37;;;;;;;15.80;10.83;;;9.70;96.20;;;;;;5024869;28;20202;-82
2021/06/02 03:07:07;;;;;;;14.43;10.90;;;9.80;95.50;;;;;;5023822;28;20214;-82
2021/06/02 03:09:41;;;;;;;14.07;10.67;;;9.80;95.50;;;;;;5021921;28;20474;-81
2021/06/02 03:12:25;;;;;;;12.57;10.87;;;9.90;95.60;;;;;;5023740;28;20225;-85
2021/06/02 03:14:59;;;;;;;15.10;11.23;;;10.00;95.70;;;;;;5029784;28;20213;-82
2021/06/02 03:17:34;;;;;;;12.23;10.20;;;10.00;95.70;;;;;;5031851;28;20246;-81
2021/06/02 03:20:09;;;;;;;14.07;10.60;;;10.00;95.50;;;;;;5032893;28;20195;-81
2021/06/02 03:23:05;;;;;;;14.00;10.90;;;10.10;95.10;;;;;;5020294;28;20235;-82
2021/06/02 03:25:39;;;;;;;11.27;10.13;;;10.30;95.00;;;;;;5024270;28;20214;-82
2021/06/02 03:28:19;;;;;;;13.73;10.60;;;10.30;95.20;;;;;;5024598;28;20423;-83
2021/06/02 03:31:01;;;;;;;13.33;10.53;;;10.40;95.20;;;;;;5023968;28;20203;-83
2021/06/02 03:33:53;;;;;;;12.73;10.73;;;10.50;94.20;;;;;;5018846;28;20225;-83
2021/06/02 03:36:34;;;;;;;15.63;10.67;;;10.50;94.00;;;;;;5021505;28;20618;-83
2021/06/02 03:39:09;;;;;;;14.77;10.40;;;10.60;93.00;;;;;;5024503;28;20198;-80
2021/06/02 03:41:55;;;;;;;13.23;10.00;;;10.60;92.40;;;;;;5019752;28;20198;-83
2021/06/02 03:44:47;;;;;;;15.27;10.30;;;10.70;92.20;;;;;;5025587;28;20199;-83
2021/06/02 03:47:22;;;;;;;10.93;9.80;;;10.80;91.90;;;;;;5023699;28;20219;-83
2021/06/02 03:50:04;;;;;;;16.07;10.23;;;10.90;92.20;;;;;;5016404;28;20460;-84
2021/06/02 03:52:46;;;;;;;14.13;10.20;;;11.20;91.90;;;;;;5012223;28;20304;-83
2021/06/02 03:55:21;;;;;;;14.27;9.60;;;11.30;90.70;;;;;;5006830;28;20594;-81
2021/06/02 03:57:57;;;;;;;12.23;9.97;;;11.50;90.40;;;;;;5012214;28;20236;-82
2021/06/02 04:00:33;;;;;;;11.27;9.57;;;11.70;88.70;;;;;;5016630;28;20635;-84
2021/06/02 04:03:07;;;;;;;10.97;9.67;;;11.90;88.70;;;;;;5021015;28;20204;-81
2021/06/02 04:05:58;;;;;;;13.57;9.03;;;11.90;87.90;;;;;;5017007;28;20292;-83
2021/06/02 04:08:40;;;;;;;11.23;9.87;;;12.30;86.90;;;;;;5014401;28;20195;-83
2021/06/02 04:11:19;;;;;;;11.10;8.70;;;12.30;86.80;;;;;;5000069;28;20227;-83
2021/06/02 04:13:55;;;;;;;14.73;9.20;;;12.40;86.50;;;;;;4992189;28;20233;-83
2021/06/02 04:16:31;;;;;;;10.67;8.97;;;12.60;85.90;;;;;;4996576;28;20210;-83
2021/06/02 04:19:04;;;;;;;14.10;8.43;;;12.90;85.90;;;;;;4989421;28;20234;-83
2021/06/02 04:21:37;;;;;;;13.30;8.63;;;13.00;85.30;;;;;;4996268;28;20214;-82
2021/06/02 04:24:08;;;;;;;11.07;9.03;;;13.10;85.10;;;;;;4993685;28;20203;-82
2021/06/02 04:26:37;;;;;;;12.13;9.30;;;13.20;85.40;;;;;;4995441;28;20199;-84
2021/06/02 04:29:10;;;;;;;9.23;7.30;;;13.30;86.10;;;;;;4989295;28;20239;-82
2021/06/02 04:31:49;;;;;;;12.50;8.77;;;13.60;84.80;;;;;;4969708;28;20231;-83
2021/06/02 04:34:19;;;;;;;11.10;8.43;;;13.80;84.90;;;;;;4971801;28;20199;-81
2021/06/02 04:36:51;;;;;;;10.50;7.87;;;13.90;84.60;;;;;;4971020;28;20235;-83
2021/06/02 04:39:20;;;;;;;12.23;7.93;;;14.00;84.00;;;;;;4980967;28;20215;-83
2021/06/02 04:41:49;;;;;;;9.70;7.07;;;14.30;83.50;;;;;;4981920;28;20509;-83
2021/06/02 04:44:19;;;;;;;12.57;7.77;;;14.40;83.10;;;;;;4990041;28;20211;-83
2021/06/02 04:46:47;;;;;;;12.00;7.40;;;14.70;82.50;;;;;;4982249;28;20713;-82
2021/06/02 04:49:17;;;;;;;7.27;6.27;;;14.80;81.90;;;;;;4983228;28;20207;-81
2021/06/02 04:52:10;;;;;;;12.23;7.00;;;14.80;81.60;;;;;;4981516;28;20208;-84
2021/06/02 04:55:25;;;;;;;9.10;6.30;;;14.80;81.90;;;;;;4975362;28;20291;-83
2021/06/02 04:58:29;;;;;;;8.33;6.17;;;15.00;81.70;;;;;;4977245;28;20223;-80
2021/06/02 05:01:22;;;;;;;8.20;5.67;;;15.20;81.40;;;;;;4968909;28;20548;-80
2021/06/02 05:04:28;;;;;;;9.10;5.97;;;15.20;81.00;;;;;;4966517;28;20207;-79
2021/06/02 05:07:43;;;;;;;9.50;5.67;;;15.30;80.60;;;;;;4977790;28;20430;-82
2021/06/02 05:11:12;;;;;;;6.70;6.03;;;15.10;81.00;;;;;;4982773;28;20247;-80
2021/06/02 05:14:25;;;;;;;11.20;5.63;;;14.90;81.40;;;;;;4982149;28;20235;-81
2021/06/02 05:17:35;;;;;;;8.93;6.50;;;14.80;81.50;;;;;;4989069;28;20644;-81
2021/06/02 05:24:27;;;;;;;8.40;6.40;;;14.90;82.20;;;;;;4960913;28;20212;-81
2021/06/02 05:27:24;;;;;;;7.73;6.17;;;15.10;82.00;;;;;;4965230;28;20233;-79
2021/06/02 05:30:30;;;;;;;21.47;6.77;;;15.20;81.50;;;;;;4965209;28;20547;-81
2021/06/02 05:33:44;;;;;;;9.03;4.70;;;15.50;81.80;;;;;;4964861;28;20489;-80
2021/06/02 05:37:02;;;;;;;10.10;5.10;;;15.50;81.00;;;;;;4939960;28;21461;-80
2021/06/02 05:40:04;;;;;;;6.07;4.60;;;15.50;80.80;;;;;;4971590;28;20200;-81
2021/06/02 05:42:54;;;;;;;7.23;5.00;;;15.50;80.40;;;;;;4961043;28;20543;-80
2021/06/02 05:45:57;;;;;;;8.07;5.23;;;15.60;80.30;;;;;;4963888;28;20566;-81
2021/06/02 05:48:56;;;;;;;6.37;4.70;;;15.70;80.50;;;;;;4929089;28;20220;-83
2021/06/02 05:51:54;;;;;;;7.30;4.77;;;15.70;80.20;;;;;;4962961;28;20200;-83
2021/06/02 05:54:55;;;;;;;5.83;4.93;;;15.80;80.20;;;;;;4966988;28;20407;-84
2021/06/02 05:58:12;;;;;;;5.03;4.53;;;16.00;80.00;;;;;;4964653;28;20540;-81
2021/06/02 06:01:16;;;;;;;4.87;4.37;;;16.30;79.60;;;;;;4962072;28;20784;-83
2021/06/02 06:04:26;;;;;;;6.60;4.07;;;16.40;79.00;;;;;;4956619;28;20215;-82
2021/06/02 06:07:08;;;;;;;8.90;4.63;;;16.50;78.60;;;;;;4963205;28;20200;-82
2021/06/02 06:10:02;;;;;;;6.77;4.30;;;16.50;78.20;;;;;;4967277;28;20753;-83
2021/06/02 06:13:10;;;;;;;9.47;4.97;;;16.70;78.40;;;;;;4965731;28;20223;-81
2021/06/02 06:16:17;;;;;;;7.47;4.80;;;16.80;78.50;;;;;;4970188;28;20224;-82
2021/06/02 06:19:14;;;;;;;6.23;4.50;;;17.00;77.90;;;;;;4949190;28;21330;-81
2021/06/02 06:22:05;;;;;;;7.20;4.50;;;16.90;77.50;;;;;;4962256;28;20208;-83
2021/06/02 06:24:41;;;;;;;8.43;4.73;;;16.90;77.80;;;;;;4959414;28;20207;-82
2021/06/02 06:27:16;;;;;;;8.10;4.70;;;16.90;78.10;;;;;;4958109;28;20884;-84
2021/06/02 06:29:56;;;;;;;6.90;4.20;;;16.70;77.80;;;;;;4959633;28;20204;-81
2021/06/02 06:32:26;;;;;;;5.87;3.77;;;16.70;78.00;;;;;;4951799;28;20275;-82
2021/06/02 06:34:59;;;;;;;8.63;4.47;;;16.70;77.70;;;;;;4954921;28;20212;-81
2021/06/02 06:37:32;;;;;;;6.83;4.33;;;16.80;78.10;;;;;;4957875;28;20264;-82
2021/06/02 06:40:04;;;;;;;6.90;4.63;;;17.00;78.00;;;;;;4958009;28;20294;-82
2021/06/02 06:42:38;;;;;;;8.80;4.40;;;17.20;77.90;;;;;;4959937;28;20299;-81
2021/06/02 06:45:10;;;;;;;9.30;4.10;;;17.30;78.00;;;;;;4954184;28;20212;-80
2021/06/02 06:47:39;;;;;;;6.77;4.17;;;17.50;77.60;;;;;;4958172;28;20303;-81
2021/06/02 06:50:11;;;;;;;4.67;4.10;;;17.30;76.80;;;;;;4950193;28;20826;-81
2021/06/02 06:52:43;;;;;;;7.00;4.47;;;17.30;77.70;;;;;;4955859;28;20223;-81
2021/06/02 06:55:13;;;;;;;6.83;3.80;;;17.40;77.50;;;;;;4973415;28;20991;-81
2021/06/02 06:57:43;;;;;;;8.00;3.90;;;17.90;77.30;;;;;;4961031;28;20266;-80
2021/06/02 07:00:12;;;;;;;6.60;3.40;;;18.00;75.90;;;;;;4952558;28;20200;-81
2021/06/02 07:02:43;;;;;;;6.87;3.70;;;18.20;75.10;;;;;;4950895;28;20409;-81
2021/06/02 07:05:14;;;;;;;5.37;3.60;;;18.50;75.40;;;;;;4957202;28;20497;-81
2021/06/02 07:07:43;;;;;;;6.20;3.63;;;18.70;74.80;;;;;;4957507;28;20295;-82
2021/06/02 07:10:14;;;;;;;5.20;3.23;;;18.80;74.00;;;;;;4956318;28;20218;-80
2021/06/02 07:12:44;;;;;;;5.30;3.60;;;18.70;72.40;;;;;;4949786;28;20492;-85
2021/06/02 07:15:14;;;;;;;3.80;3.50;;;18.40;72.70;;;;;;4952780;28;20215;-81
2021/06/02 07:17:46;;;;;;;10.73;4.63;;;18.30;72.70;;;;;;4956444;28;20476;-85
2021/06/02 07:20:19;;;;;;;5.27;3.30;;;18.30;73.10;;;;;;4957142;28;20930;-80
2021/06/02 07:22:48;;;;;;;5.90;3.67;;;18.30;72.70;;;;;;4964499;28;20512;-81
2021/06/02 07:25:20;;;;;;;4.70;3.07;;;18.30;73.20;;;;;;4964501;28;20650;-81
2021/06/02 07:27:49;;;;;;;4.77;3.33;;;18.60;72.80;;;;;;4968281;28;20265;-82
2021/06/02 07:30:19;;;;;;;5.07;3.57;;;18.90;72.10;;;;;;4965856;28;20926;-82
2021/06/02 07:32:47;;;;;;;5.40;3.10;;;19.20;72.40;;;;;;4956650;28;20215;-80
2021/06/02 07:35:17;;;;;;;4.43;3.03;;;19.50;70.70;;;;;;4969415;28;20211;-83
2021/06/02 07:37:44;;;;;;;3.17;2.87;;;19.80;69.10;;;;;;4981748;28;20228;-78
2021/06/02 07:40:13;;;;;;;5.40;3.30;;;20.10;67.80;;;;;;4973044;28;20445;-81
2021/06/02 07:42:41;;;;;;;4.40;2.60;;;20.10;67.70;;;;;;4978659;28;20278;-83
2021/06/02 07:45:11;;;;;;;6.60;2.93;;;20.10;66.20;;;;;;4971499;28;20208;-84
2021/06/02 07:47:39;;;;;;;3.67;3.37;;;19.90;66.90;;;;;;4973433;28;20496;-81
2021/06/02 07:50:09;;;;;;;4.57;2.90;;;19.90;66.60;;;;;;4970301;28;20322;-81
2021/06/02 07:52:38;;;;;;;6.80;3.10;;;19.90;65.60;;;;;;4962611;28;20435;-81
2021/06/02 07:55:06;;;;;;;5.90;2.80;;;19.70;66.60;;;;;;4968041;28;20196;-83
2021/06/02 07:57:35;;;;;;;4.30;2.90;;;19.60;66.50;;;;;;4954654;28;20614;-78
2021/06/02 08:00:04;;;;;;;3.90;3.23;;;19.70;66.60;;;;;;4950348;28;20777;-77
2021/06/02 08:02:32;;;;;;;4.00;2.97;;;20.00;65.30;;;;;;4942309;28;20778;-76
2021/06/02 08:05:00;;;;;;;4.17;2.83;;;20.20;65.10;;;;;;4938787;28;20254;-77
2021/06/02 08:07:42;;;;;;;2.97;2.47;;;20.70;63.50;;;;;;4948695;28;20271;-76
2021/06/02 08:10:11;;;;;;;5.00;2.63;;;21.00;61.70;;;;;;4940202;28;20391;-78
2021/06/02 08:12:38;;;;;;;4.53;2.43;;;20.60;59.80;;;;;;4936560;28;20605;-76
2021/06/02 08:15:08;;;;;;;3.13;2.40;;;20.60;59.10;;;;;;4942440;28;20726;-78
2021/06/02 08:17:37;;;;;;;4.80;2.60;;;20.60;58.50;;;;;;4943710;28;20556;-77
2021/06/02 08:20:07;;;;;;;2.77;2.57;;;20.50;58.10;;;;;;4942389;28;20745;-77
2021/06/02 08:22:35;;;;;;;3.00;2.43;;;20.30;56.50;;;;;;4931332;28;20385;-79
2021/06/02 08:25:07;;;;;;;3.87;2.47;;;20.10;58.30;;;;;;4942077;28;20502;-77
2021/06/02 08:27:35;;;;;;;3.40;2.40;;;20.40;59.00;;;;;;4937300;28;20322;-78
2021/06/02 08:30:05;;;;;;;3.23;2.70;;;20.70;57.60;;;;;;4941578;28;20683;-77
2021/06/02 08:32:34;;;;;;;3.90;2.60;;;20.30;56.60;;;;;;4935278;28;20606;-77
2021/06/02 08:35:04;;;;;;;4.83;2.70;;;20.20;56.50;;;;;;4929184;28;20216;-76
2021/06/02 08:37:32;;;;;;;5.63;2.70;;;20.10;56.60;;;;;;4931766;28;20446;-76
2021/06/02 08:40:00;;;;;;;3.63;2.20;;;20.00;56.70;;;;;;4937726;28;20242;-76
2021/06/02 08:42:30;;;;;;;2.67;2.40;;;20.10;56.50;;;;;;4934699;28;20669;-76
2021/06/02 08:44:58;;;;;;;4.13;2.73;;;20.30;56.60;;;;;;4930991;28;20637;-78
2021/06/02 08:47:26;;;;;;;2.60;2.40;;;20.30;55.90;;;;;;4935346;28;20258;-77
2021/06/02 08:49:54;;;;;;;4.07;2.53;;;20.10;54.80;;;;;;4940303;28;20363;-77
2021/06/02 08:52:22;;;;;;;4.57;2.90;;;20.00;56.70;;;;;;4933757;28;20215;-76
2021/06/02 08:54:50;;;;;;;5.70;2.50;;;20.30;55.90;;;;;;4934905;28;20219;-78
2021/06/02 08:57:18;;;;;;;3.97;2.57;;;20.30;55.60;;;;;;4942131;28;20250;-77
2021/06/02 08:59:47;;;;;;;5.40;2.70;;;20.30;53.30;;;;;;4936782;28;20266;-77
2021/06/02 09:02:17;;;;;;;3.33;2.10;;;20.30;54.70;;;;;;4938816;28;20239;-76
2021/06/02 09:04:44;;;;;;;2.70;2.50;;;20.30;54.50;;;;;;4938602;28;20366;-77
2021/06/02 09:07:14;;;;;;;3.10;2.30;;;20.30;54.40;;;;;;4944677;28;20959;-78
2021/06/02 09:09:43;;;;;;;5.87;2.80;;;20.30;53.50;;;;;;4942124;28;20879;-79
2021/06/02 09:12:14;;;;;;;3.97;2.50;;;20.10;54.90;;;;;;4944489;28;20211;-77
2021/06/02 09:14:43;;;;;;;4.10;2.73;;;20.00;54.90;;;;;;4939777;28;20219;-79
2021/06/02 09:17:14;;;;;;;3.47;2.67;;;19.70;53.60;;;;;;4943188;28;20389;-77
2021/06/02 09:19:43;;;;;;;3.83;2.70;;;19.50;54.40;;;;;;4948186;28;20354;-77
2021/06/02 09:22:14;;;;;;;6.73;2.67;;;19.40;54.60;;;;;;4937086;28;20216;-77
2021/06/02 09:25:00;;;;;;;4.83;2.33;;;19.50;55.30;;;;;;4941056;28;20215;-76
2021/06/02 09:27:43;;;;;;;4.83;2.97;;;19.90;54.40;;;;;;4944288;28;20204;-79
2021/06/02 09:30:13;;;;;;;2.37;2.20;;;20.10;52.80;;;;;;4942411;28;20597;-77
2021/06/02 09:32:45;;;;;;;2.70;2.33;;;20.10;52.60;;;;;;4943080;28;20254;-78
2021/06/02 09:35:14;;;;;;;4.33;2.73;;;19.80;53.80;;;;;;4936397;28;20207;-77
2021/06/02 09:37:53;;;;;;;4.43;2.53;;;19.70;54.60;;;;;;4948193;28;20236;-77
2021/06/02 09:40:29;;;;;;;3.80;2.67;;;19.70;53.90;;;;;;4947794;28;20725;-77
2021/06/02 09:42:57;;;;;;;8.30;2.67;;;19.70;54.20;;;;;;4936764;28;20692;-78
2021/06/02 09:45:25;;;;;;;2.90;2.53;;;19.80;55.20;;;;;;4948753;28;20291;-76
2021/06/02 09:47:58;;;;;;;3.40;2.57;;;20.00;55.10;;;;;;4946576;28;20642;-77
2021/06/02 09:50:28;;;;;;;3.60;2.53;;;20.30;53.30;;;;;;4945496;28;20733;-77
2021/06/02 09:52:58;;;;;;;3.90;2.72;;;20.40;53.80;;;;;;4936875;28;20456;-76
2021/06/02 09:55:27;;;;;;;5.20;2.50;;;20.50;53.60;;;;;;4940569;28;20356;-77
2021/06/02 09:58:10;;;;;;;3.37;2.53;;;20.40;52.30;;;;;;4946281;28;20722;-78
2021/06/02 10:00:40;;;;;;;3.83;2.37;;;20.30;52.90;;;;;;4950615;28;20550;-77
2021/06/02 10:03:13;;;;;;;3.97;2.80;;;20.40;51.80;;;;;;4937149;28;20255;-77
2021/06/02 10:05:42;;;;;;;5.50;2.90;;;20.30;52.60;;;;;;4940434;28;20224;-77
2021/06/02 10:08:12;;;;;;;3.77;2.47;;;20.30;53.80;;;;;;4945849;28;20216;-78
2021/06/02 10:10:40;;;;;;;3.00;2.40;;;20.20;53.20;;;;;;4948189;28;20829;-76
2021/06/02 10:13:10;;;;;;;3.00;2.70;;;20.10;52.80;;;;;;4933294;28;20208;-77
2021/06/02 10:15:39;;;;;;;4.20;2.50;;;20.20;53.00;;;;;;4947387;28;20774;-77
2021/06/02 10:18:25;;;;;;;3.73;2.30;;;20.40;52.60;;;;;;4943611;28;20311;-77
2021/06/02 10:20:58;;;;;;;5.83;2.73;;;20.40;52.90;;;;;;4951726;28;20227;-77
2021/06/02 10:23:28;;;;;;;3.67;2.47;;;20.50;53.50;;;;;;4930210;28;20591;-78
2021/06/02 10:26:00;;;;;;;2.87;2.20;;;20.40;51.90;;;;;;4945485;28;20211;-78
2021/06/02 10:28:30;;;;;;;3.60;2.73;;;20.30;51.30;;;;;;4945724;28;20875;-77
2021/06/02 10:30:58;;;;;;;3.57;2.53;;;19.90;50.40;;;;;;4944578;28;20390;-77
2021/06/02 10:33:29;;;;;;;3.80;2.60;;;19.90;51.80;;;;;;4934309;28;20212;-77
2021/06/02 10:35:58;;;;;;;3.03;2.50;;;20.00;50.40;;;;;;4944140;28;20200;-77
2021/06/02 10:38:28;;;;;;;3.00;2.70;;;19.90;49.60;;;;;;4947375;28;20204;-77
2021/06/02 10:40:57;;;;;;;6.23;2.67;;;19.90;50.00;;;;;;4945192;28;20642;-77
2021/06/02 10:43:29;;;;;;;4.60;2.67;;;19.80;51.00;;;;;;4929715;28;21078;-76
2021/06/02 10:46:00;;;;;;;5.07;2.53;;;19.70;50.80;;;;;;4947991;28;20290;-77
2021/06/02 10:48:45;;;;;;;3.80;2.63;;;19.50;50.50;;;;;;4947022;28;20637;-77
2021/06/02 10:51:24;;;;;;;4.40;2.70;;;19.50;51.60;;;;;;4944589;28;20836;-77
2021/06/02 10:54:06;;;;;;;4.17;2.40;;;19.50;50.30;;;;;;4935577;28;20595;-77
2021/06/02 10:56:34;;;;;;;4.10;2.27;;;19.50;51.20;;;;;;4942394;28;21022;-76
2021/06/02 10:59:02;;;;;;;5.87;3.17;;;19.80;52.50;;;;;;4948523;28;20686;-78
2021/06/02 11:01:30;;;;;;;3.23;2.60;;;20.10;51.10;;;;;;4940941;28;20238;-76
2021/06/02 11:04:12;;;;;;;3.43;2.80;;;20.20;50.90;;;;;;4937841;28;20266;-76
2021/06/02 11:06:42;;;;;;;6.03;2.40;;;20.10;50.80;;;;;;4946214;28;20817;-77
2021/06/02 11:09:16;;;;;;;4.77;2.30;;;20.10;51.00;;;;;;4945114;28;20906;-79
2021/06/02 11:11:45;;;;;;;2.83;2.60;;;19.80;50.80;;;;;;4943745;28;20261;-77
2021/06/02 11:14:26;;;;;;;2.97;2.60;;;19.40;50.80;;;;;;4933870;28;20310;-77
2021/06/02 11:17:02;;;;;;;3.23;2.70;;;19.50;52.50;;;;;;4938798;28;20274;-80
2021/06/02 11:19:38;;;;;;;4.33;2.87;;;19.90;51.00;;;;;;4941815;28;21413;-77
2021/06/02 11:22:07;;;;;;;3.30;2.60;;;19.80;50.70;;;;;;4939328;28;20591;-77
2021/06/02 11:24:41;;;;;;;5.23;2.20;;;20.10;50.90;;;;;;4937878;28;20453;-76
2021/06/02 11:27:35;;;;;;;3.00;2.40;;;20.30;51.50;;;;;;4943768;28;20456;-77
2021/06/02 11:30:31;;;;;;;4.57;2.80;;;20.50;50.30;;;;;;4942821;28;20208;-77
2021/06/02 11:33:13;;;;;;;4.18;2.40;;;20.90;50.10;;;;;;4934802;28;20642;-78
2021/06/02 11:35:59;;;;;;;4.03;2.63;;;21.10;49.70;;;;;;4938947;28;20208;-78
2021/06/02 11:38:28;;;;;;;3.42;2.35;;;21.30;50.70;;;;;;4939078;28;20970;-77
2021/06/02 11:40:56;;;;;;;5.28;2.33;;;21.30;49.00;;;;;;4947231;28;20634;-79
2021/06/02 11:43:25;;;;;;;3.30;2.25;;;21.30;49.00;;;;;;4934794;28;20520;-77
2021/06/02 11:45:55;;;;;;;3.75;2.58;;;21.00;48.00;;;;;;4943488;28;20777;-76
2021/06/02 11:48:26;;;;;;;3.15;2.45;;;21.00;48.80;;;;;;4947177;28;20220;-76
2021/06/02 11:50:57;;;;;;;3.20;2.33;;;21.10;48.10;;;;;;4949729;28;20253;-77
2021/06/02 11:53:45;;;;;;;4.43;2.55;;;21.30;49.10;;;;;;4927402;28;20239;-77
2021/06/02 11:56:14;;;;;;;4.38;2.50;;;21.30;49.30;;;;;;4939174;28;20275;-77
2021/06/02 11:58:48;;;;;;;4.28;2.40;;;21.30;49.50;;;;;;4939443;28;20613;-78
2021/06/02 12:01:23;;;;;;;4.20;2.65;;;21.00;49.30;;;;;;4943420;28;20211;-76
2021/06/02 12:03:58;;;;;;;4.60;2.42;;;20.70;49.10;;;;;;4930481;28;20949;-77
2021/06/02 12:06:33;;;;;;;2.93;2.40;;;20.40;50.10;;;;;;4944271;28;20208;-77
2021/06/02 12:09:11;;;;;;;3.80;2.70;;;20.40;50.40;;;;;;4943827;28;20211;-76
2021/06/02 12:11:39;;;;;;;4.30;2.70;;;20.30;50.00;;;;;;4937894;28;20584;-77
2021/06/02 12:14:20;;;;;;;2.50;2.30;;;20.40;50.40;;;;;;4934587;28;20307;-75
2021/06/02 12:16:48;;;;;;;4.13;2.50;;;20.80;48.80;;;;;;4941641;28;20709;-77
2021/06/02 12:19:18;;;;;;;6.60;2.40;;;21.00;48.60;;;;;;4945217;28;20253;-78
2021/06/02 12:21:47;;;;;;;3.22;2.58;;;21.20;48.10;;;;;;4940782;28;20239;-77
2021/06/02 12:24:18;;;;;;;3.20;2.30;;;21.40;47.50;;;;;;4935348;28;20650;-78
2021/06/02 12:26:47;;;;;;;3.47;2.78;;;21.40;49.00;;;;;;4943110;28;20223;-77
2021/06/02 12:29:17;;;;;;;2.80;2.50;;;21.60;49.90;;;;;;4942246;28;20335;-78
2021/06/02 12:31:46;;;;;;;5.15;2.45;;;21.60;48.40;;;;;;4940684;28;20633;-77
2021/06/02 12:34:17;;;;;;;5.97;2.65;;;21.60;49.40;;;;;;4931707;28;20609;-76
2021/06/02 12:36:49;;;;;;;3.47;2.50;;;21.60;49.30;;;;;;4940915;28;20524;-77
2021/06/02 12:39:19;;;;;;;4.88;2.83;;;21.70;48.60;;;;;;4945094;28;20216;-77
2021/06/02 12:41:50;;;;;;;4.30;2.40;;;21.50;49.00;;;;;;4944191;28;20238;-77
2021/06/02 12:44:22;;;;;;;3.83;2.10;;;21.00;48.10;;;;;;4939466;28;20208;-78
2021/06/02 12:47:01;;;;;;;3.73;2.07;;;20.50;47.40;;;;;;4948947;28;20255;-76
2021/06/02 12:49:31;;;;;;;4.67;2.30;;;20.50;47.90;;;;;;4945187;28;20232;-77
2021/06/02 12:52:00;;;;;;;4.07;2.60;;;20.50;48.10;;;;;;4944025;28;20945;-76
2021/06/02 12:54:30;;;;;;;2.60;2.17;;;20.60;48.10;;;;;;4941836;28;20212;-77
2021/06/02 12:56:59;;;;;;;4.63;2.40;;;21.20;48.00;;;;;;4947419;28;20318;-77
2021/06/02 12:59:28;;;;;;;2.17;2.08;;;21.30;48.10;;;;;;4943794;28;20676;-76
2021/06/02 13:01:58;;;;;;;4.32;2.35;;;21.10;47.00;;;;;;4946223;28;20254;-77
2021/06/02 13:04:27;;;;;;;2.87;2.30;;;20.90;46.90;;;;;;4942174;28;20249;-77
2021/06/02 13:06:57;;;;;;;2.73;2.10;;;21.00;48.10;;;;;;4948650;28;20641;-77
2021/06/02 13:09:26;;;;;;;3.00;2.40;;;20.60;47.80;;;;;;4948908;28;20200;-77
2021/06/02 13:11:56;;;;;;;2.70;2.50;;;20.80;48.50;;;;;;4944770;28;20512;-78
2021/06/02 13:14:35;;;;;;;2.53;2.33;;;21.20;48.90;;;;;;4940501;28;20209;-76
2021/06/02 13:17:05;;;;;;;3.53;2.10;;;21.40;47.60;;;;;;4951662;28;20203;-76
2021/06/02 13:19:34;;;;;;;9.10;2.40;;;21.10;48.20;;;;;;4950975;28;20311;-77
2021/06/02 13:22:03;;;;;;;3.37;1.87;;;21.20;47.70;;;;;;4947868;28;20204;-79
2021/06/02 13:24:38;;;;;;;3.97;2.30;;;21.00;46.80;;;;;;4944327;28;20323;-77
2021/06/02 13:27:13;;;;;;;2.93;2.23;;;20.60;47.10;;;;;;4953436;28;20699;-77
2021/06/02 13:30:00;;;;;;;2.60;2.10;;;20.60;47.10;;;;;;4951913;28;20414;-77
2021/06/02 13:32:28;;;;;;;3.90;2.13;;;20.80;47.30;;;;;;4959521;28;20235;-77
2021/06/02 13:34:57;;;;;;;4.33;2.57;;;21.00;48.00;;;;;;4954053;28;20368;-77
2021/06/02 13:37:25;;;;;;;3.57;2.20;;;21.20;47.90;;;;;;4958747;28;20733;-77